Time;durP1;ratioP1;P1;durP2;ratioP2;P2;SDS_P1;SDS_P2;PMS_P1;PMS_P2;Temp;Humidity;BMP_temperature;BMP_pressure;BME280_temperature;BME280_humidity;BME280_pressure;Samples;Min_cycle;Max_cycle;Signal;HPM_P1;HPM_P2
2023/11/13 00:00:44;;;;;;;120.90;34.63;;;;;;;-146.25;100.00;52615.56;2103596;28;38729;-72
2023/11/13 00:01:46;;;;;;;112.40;37.17;;;;;;;-146.25;100.00;52619.63;2105384;28;20063;-73
2023/11/13 00:02:48;;;;;;;146.73;38.22;;;;;;;-146.25;100.00;52601.38;2105020;28;31476;-72
2023/11/13 00:03:50;;;;;;;115.85;35.47;;;;;;;-146.25;100.00;52639.91;2105139;28;33186;-73
2023/11/13 00:04:52;;;;;;;101.78;33.30;;;;;;;-146.25;100.00;52635.84;2104602;28;33982;-72
2023/11/13 00:05:55;;;;;;;112.95;34.25;;;;;;;-146.25;100.00;52568.94;2105020;28;38540;-74
2023/11/13 00:07:01;;;;;;;113.75;34.10;;;;;;;-146.25;100.00;52542.56;2105275;28;20773;-72
2023/11/13 00:08:06;;;;;;;110.53;32.15;;;;;;;-146.25;100.00;52579.06;2104837;28;39023;-73
2023/11/13 00:09:08;;;;;;;101.75;30.88;;;;;;;-146.25;100.00;52597.31;2104608;28;32730;-73
2023/11/13 00:10:10;;;;;;;100.25;33.05;;;;;;;-146.25;100.00;52603.41;2105954;28;20684;-73
2023/11/13 00:11:12;;;;;;;118.78;35.88;;;;;;;-146.25;100.00;52581.09;2104620;28;32073;-73
2023/11/13 00:12:13;;;;;;;102.18;33.60;;;;;;;-146.25;100.00;52607.47;2104956;28;24940;-74
2023/11/13 00:13:18;;;;;;;104.57;32.92;;;;;;;-146.25;100.00;52609.50;2105449;28;20110;-74
2023/11/13 00:14:20;;;;;;;115.43;31.92;;;;;;;-146.25;100.00;52601.38;2105175;28;25540;-74
2023/11/13 00:15:23;;;;;;;108.68;32.17;;;;;;;-146.25;100.00;52587.19;2105072;28;25533;-72
2023/11/13 00:16:25;;;;;;;127.97;33.90;;;;;;;-146.25;100.00;52605.44;2105452;28;20037;-74
2023/11/13 00:17:27;;;;;;;113.38;33.83;;;;;;;-146.25;100.00;52587.19;2104548;28;24168;-73
2023/11/13 00:18:31;;;;;;;122.15;35.83;;;;;;;-146.25;100.00;52609.50;2104305;28;34407;-73
2023/11/13 00:19:35;;;;;;;119.18;35.72;;;;;;;-146.25;100.00;52607.47;2105496;28;20048;-73
2023/11/13 00:20:37;;;;;;;123.43;31.98;;;;;;;-146.25;100.00;52609.50;2104488;28;33412;-73
2023/11/13 00:21:42;;;;;;;116.88;34.22;;;;;;;-146.25;100.00;52599.34;2104920;28;35696;-73
2023/11/13 00:22:43;;;;;;;126.95;36.05;;;;;;;-146.25;100.00;52625.72;2104596;28;30736;-72
2023/11/13 00:23:47;;;;;;;122.45;33.05;;;;;;;-146.25;100.00;52575.00;2104440;28;37333;-73
2023/11/13 00:24:51;;;;;;;131.40;32.03;;;;;;;-146.25;100.00;52623.69;2104830;28;35640;-73
2023/11/13 00:25:55;;;;;;;127.57;33.95;;;;;;;-146.25;100.00;52587.19;2104472;28;31580;-74
2023/11/13 00:26:58;;;;;;;102.60;33.22;;;;;;;-146.25;100.00;52585.16;2103812;28;37206;-73
2023/11/13 00:27:59;;;;;;;133.52;34.78;;;;;;;-146.25;100.00;52597.31;2105093;28;24742;-74
2023/11/13 00:29:02;;;;;;;108.55;33.50;;;;;;;-146.25;100.00;52583.13;2104590;28;28979;-73
2023/11/13 00:30:06;;;;;;;123.10;32.22;;;;;;;-146.25;100.00;52585.16;2104055;28;23275;-72
2023/11/13 00:31:08;;;;;;;118.57;31.90;;;;;;;-146.25;100.00;52579.06;2096878;28;20037;-74
2023/11/13 00:32:15;;;;;;;141.73;33.10;;;;;;;-146.25;100.00;52607.47;2096637;28;20084;-74
2023/11/13 00:33:17;;;;;;;109.70;31.52;;;;;;;-146.25;100.00;52605.44;2104210;28;28909;-73
2023/11/13 00:34:22;;;;;;;97.30;33.10;;;;;;;-146.25;100.00;52568.94;2104522;28;22428;-74
2023/11/13 00:35:27;;;;;;;106.78;32.58;;;;;;;-146.25;100.00;52583.13;2104594;28;20118;-73
2023/11/13 00:36:29;;;;;;;100.43;31.77;;;;;;;-146.25;100.00;52680.47;2105162;28;25112;-74
2023/11/13 00:37:31;;;;;;;118.72;32.30;;;;;;;-146.25;100.00;52603.41;2104351;28;29596;-74
2023/11/13 00:38:32;;;;;;;124.00;31.10;;;;;;;-146.25;100.00;52591.25;2104293;28;24490;-74
2023/11/13 00:39:35;;;;;;;94.10;31.05;;;;;;;-146.25;100.00;52595.28;2104552;28;20165;-74
2023/11/13 00:40:37;;;;;;;109.75;30.52;;;;;;;-146.25;100.00;52607.47;2104895;28;26090;-74
2023/11/13 00:41:41;;;;;;;114.57;32.08;;;;;;;-146.25;100.00;52597.31;2103772;28;28546;-73
2023/11/13 00:42:43;;;;;;;113.43;31.20;;;;;;;-146.25;100.00;52597.31;2104139;28;22331;-74
2023/11/13 00:43:49;;;;;;;94.15;31.90;;;;;;;-146.25;100.00;52617.59;2104870;28;29885;-73
2023/11/13 00:44:51;;;;;;;101.57;32.72;;;;;;;-146.25;100.00;52641.94;2105439;28;20044;-74
2023/11/13 00:45:53;;;;;;;110.93;31.55;;;;;;;-146.25;100.00;52591.25;2104868;28;23840;-74
2023/11/13 00:46:57;;;;;;;108.45;32.25;;;;;;;-146.25;100.00;52589.22;2105455;28;21027;-73
2023/11/13 00:47:59;;;;;;;118.50;32.97;;;;;;;-146.25;100.00;52546.63;2104900;28;26165;-74
2023/11/13 00:49:02;;;;;;;113.65;33.90;;;;;;;-146.25;100.00;52595.28;2096139;28;20813;-73
2023/11/13 00:50:04;;;;;;;104.60;31.90;;;;;;;-146.25;100.00;52595.28;2095751;28;27973;-72
2023/11/13 00:51:10;;;;;;;99.88;31.15;;;;;;;-146.25;100.00;52595.28;2112743;28;20167;-73
2023/11/13 00:52:12;;;;;;;105.95;33.38;;;;;;;-146.25;100.00;52577.03;2112201;28;27732;-74
2023/11/13 00:53:14;;;;;;;112.35;32.40;;;;;;;-146.25;100.00;52623.69;2104265;28;26450;-73
2023/11/13 00:54:16;;;;;;;139.27;35.28;;;;;;;-146.25;100.00;52615.56;2103979;28;35378;-74
2023/11/13 00:55:19;;;;;;;128.15;34.95;;;;;;;-146.25;100.00;52631.78;2096740;28;20303;-74
2023/11/13 00:56:21;;;;;;;139.23;36.58;;;;;;;-146.25;100.00;52603.41;2104086;28;28170;-73
2023/11/13 00:57:23;;;;;;;123.85;36.55;;;;;;;-146.25;100.00;52627.75;2104112;28;33734;-74
2023/11/13 00:58:26;;;;;;;131.23;36.00;;;;;;;-146.25;100.00;52585.16;2104619;28;32030;-73
2023/11/13 00:59:28;;;;;;;110.78;34.30;;;;;;;-146.25;100.00;52623.69;2103293;28;32301;-73
2023/11/13 01:00:30;;;;;;;113.95;34.03;;;;;;;-146.25;100.00;52623.69;2095710;28;28270;-73
2023/11/13 01:01:32;;;;;;;134.18;35.17;;;;;;;-146.25;100.00;52607.47;2096194;28;20094;-73
2023/11/13 01:02:34;;;;;;;131.20;34.70;;;;;;;-146.25;100.00;52593.25;2087974;28;20042;-73
2023/11/13 01:03:36;;;;;;;132.27;34.15;;;;;;;-146.25;100.00;52603.41;2088073;28;20148;-74
2023/11/13 01:04:39;;;;;;;114.50;34.38;;;;;;;-146.25;100.00;52583.13;2103430;28;29568;-74
2023/11/13 01:05:42;;;;;;;107.00;32.70;;;;;;;-146.25;100.00;52589.22;2103687;28;33814;-74
2023/11/13 01:06:44;;;;;;;113.30;32.85;;;;;;;-146.25;100.00;52623.69;2104586;28;20045;-72
2023/11/13 01:07:49;;;;;;;119.85;34.17;;;;;;;-146.25;100.00;52585.16;2103787;28;27266;-73
2023/11/13 01:08:51;;;;;;;128.02;34.90;;;;;;;-146.25;100.00;52579.06;2096504;28;20040;-73
2023/11/13 01:09:53;;;;;;;115.82;34.25;;;;;;;-146.25;100.00;52635.84;2104082;28;20112;-73
2023/11/13 01:10:59;;;;;;;120.70;36.35;;;;;;;-146.25;100.00;52611.50;2104470;28;20041;-73
2023/11/13 01:12:01;;;;;;;110.93;35.45;;;;;;;-146.25;100.00;52568.94;2105267;28;20037;-73
2023/11/13 01:13:03;;;;;;;139.60;35.70;;;;;;;-146.25;100.00;52652.06;2106571;28;20048;-73
2023/11/13 01:14:05;;;;;;;114.63;34.05;;;;;;;-146.25;100.00;52585.16;2106755;28;20029;-73
2023/11/13 01:15:09;;;;;;;122.82;34.88;;;;;;;-146.25;100.00;52619.63;2106426;28;20894;-73
2023/11/13 01:16:11;;;;;;;133.85;33.30;;;;;;;-146.25;100.00;52593.25;2105666;28;20051;-74
2023/11/13 01:17:15;;;;;;;138.48;36.42;;;;;;;-146.25;100.00;52633.81;2106068;28;20044;-74
2023/11/13 01:18:19;;;;;;;140.63;37.08;;;;;;;-146.25;100.00;52577.03;2106494;28;20044;-73
2023/11/13 01:19:23;;;;;;;151.43;38.65;;;;;;;-146.25;100.00;52599.34;2106739;28;20041;-73
2023/11/13 01:20:25;;;;;;;142.85;39.92;;;;;;;-146.25;100.00;52605.44;2105757;28;20821;-72
2023/11/13 01:21:27;;;;;;;156.90;40.05;;;;;;;-146.25;100.00;52566.91;2105871;28;20039;-73
2023/11/13 01:22:30;;;;;;;168.10;42.22;;;;;;;-146.25;100.00;52607.47;2106548;28;20029;-73
2023/11/13 01:23:33;;;;;;;187.10;42.38;;;;;;;-146.25;100.00;52609.50;2105787;28;20032;-73
2023/11/13 01:24:37;;;;;;;172.48;40.90;;;;;;;-146.25;100.00;52603.41;2097563;28;20044;-73
2023/11/13 01:25:42;;;;;;;166.85;42.17;;;;;;;-146.25;100.00;52603.41;2105449;28;20032;-73
2023/11/13 01:26:47;;;;;;;162.15;39.60;;;;;;;-146.25;100.00;52627.75;2105399;28;20102;-73
2023/11/13 01:27:49;;;;;;;190.65;42.13;;;;;;;-146.25;100.00;52593.25;2105583;28;20048;-73
2023/11/13 01:28:51;;;;;;;183.85;41.75;;;;;;;-146.25;100.00;52593.25;2105323;28;27163;-73
2023/11/13 01:29:52;;;;;;;161.75;39.22;;;;;;;-146.25;100.00;52573.00;2106567;28;22500;-73
2023/11/13 01:30:55;;;;;;;148.88;40.38;;;;;;;-146.25;100.00;52603.41;2106090;28;20637;-73
2023/11/13 01:31:56;;;;;;;171.55;39.30;;;;;;;-146.25;100.00;52603.41;2106294;28;27530;-73
2023/11/13 01:32:59;;;;;;;153.75;39.20;;;;;;;-146.25;100.00;52621.66;2104928;28;31153;-73
2023/11/13 01:34:01;;;;;;;146.38;38.95;;;;;;;-146.25;100.00;52568.94;2105528;28;28858;-73
2023/11/13 01:35:03;;;;;;;158.07;38.60;;;;;;;-146.25;100.00;52599.34;2105813;28;20832;-73
2023/11/13 01:36:05;;;;;;;142.80;39.38;;;;;;;-146.25;100.00;52621.66;2097261;28;29203;-72
2023/11/13 01:37:08;;;;;;;161.40;39.35;;;;;;;-146.25;100.00;52613.53;2097073;28;34449;-73
2023/11/13 01:38:10;;;;;;;104.82;35.67;;;;;;;-146.25;100.00;52623.69;2105683;28;23534;-73
2023/11/13 01:39:12;;;;;;;144.95;37.88;;;;;;;-146.25;100.00;52633.81;2105303;28;26547;-71
2023/11/13 01:40:14;;;;;;;132.48;37.92;;;;;;;-146.25;100.00;52579.06;2098160;28;20037;-73
2023/11/13 01:41:16;;;;;;;114.15;35.65;;;;;;;-146.25;100.00;52566.91;2097273;28;33690;-73
2023/11/13 01:42:20;;;;;;;146.18;37.80;;;;;;;-146.25;100.00;52609.50;2096744;28;28529;-73
2023/11/13 01:43:23;;;;;;;127.38;34.60;;;;;;;-146.25;100.00;52581.09;2097699;28;20183;-73
2023/11/13 01:44:25;;;;;;;140.93;39.17;;;;;;;-146.25;100.00;52579.06;2097080;28;29920;-72
2023/11/13 01:45:27;;;;;;;142.35;34.83;;;;;;;-146.25;100.00;52587.19;2105363;28;28379;-73
2023/11/13 01:46:30;;;;;;;120.90;38.50;;;;;;;-146.25;100.00;52566.91;2106550;28;20025;-73
2023/11/13 01:47:32;;;;;;;138.80;36.28;;;;;;;-146.25;100.00;52613.53;2096712;28;28695;-73
2023/11/13 01:48:34;;;;;;;138.55;36.15;;;;;;;-146.25;100.00;52633.81;2089179;28;25980;-73
2023/11/13 01:49:39;;;;;;;142.02;37.95;;;;;;;-146.25;100.00;52556.75;2104917;28;27320;-73
2023/11/13 01:50:41;;;;;;;126.00;36.35;;;;;;;-146.25;100.00;52591.25;2105890;28;28584;-73
2023/11/13 01:51:43;;;;;;;130.82;39.53;;;;;;;-146.25;100.00;52579.06;2106225;28;20036;-74
2023/11/13 01:52:47;;;;;;;127.15;40.17;;;;;;;-146.25;100.00;52597.31;2105909;28;32274;-73
2023/11/13 01:53:50;;;;;;;164.52;45.15;;;;;;;-146.25;100.00;52623.69;2105508;28;29648;-73
2023/11/13 01:54:52;;;;;;;140.75;41.47;;;;;;;-146.25;100.00;52575.00;2105518;28;20048;-73
2023/11/13 01:55:57;;;;;;;151.50;41.13;;;;;;;-146.25;100.00;52611.50;2104818;28;29339;-73
2023/11/13 01:57:03;;;;;;;161.13;43.92;;;;;;;-146.25;100.00;52587.19;2096561;28;23881;-73
2023/11/13 01:58:06;;;;;;;166.15;38.58;;;;;;;-146.25;100.00;52611.50;2089492;28;20037;-72
2023/11/13 01:59:10;;;;;;;175.43;45.95;;;;;;;-146.25;100.00;52621.66;2089723;28;20731;-73
2023/11/13 02:00:14;;;;;;;163.95;47.75;;;;;;;-146.25;100.00;52595.28;2088697;28;26752;-73
2023/11/13 02:01:16;;;;;;;178.05;46.22;;;;;;;-146.25;100.00;52619.63;2090283;28;20059;-73
2023/11/13 02:02:19;;;;;;;177.98;47.03;;;;;;;-146.25;100.00;52585.16;2105784;28;31332;-73
2023/11/13 02:03:22;;;;;;;167.02;47.45;;;;;;;-146.25;100.00;52591.25;2105486;28;20048;-72
2023/11/13 02:04:26;;;;;;;206.80;49.47;;;;;;;-146.25;100.00;52583.13;2089056;28;20049;-73
2023/11/13 02:05:28;;;;;;;160.65;47.38;;;;;;;-146.25;100.00;52593.25;2089338;28;22113;-73
2023/11/13 02:06:31;;;;;;;228.25;50.22;;;;;;;-146.25;100.00;52583.13;2106210;28;20072;-73
2023/11/13 02:07:39;;;;;;;179.85;50.20;;;;;;;-146.25;100.00;52601.38;2105723;28;20039;-73
2023/11/13 02:08:41;;;;;;;210.45;49.53;;;;;;;-146.25;100.00;52607.47;2098384;28;20118;-71
2023/11/13 02:09:43;;;;;;;195.13;45.60;;;;;;;-146.25;100.00;52583.13;2096965;28;20037;-73
2023/11/13 02:10:46;;;;;;;168.57;47.78;;;;;;;-146.25;100.00;52581.09;2097119;28;20061;-72
2023/11/13 02:11:49;;;;;;;207.70;50.75;;;;;;;-146.25;100.00;52575.00;2096504;28;22737;-72
2023/11/13 02:12:51;;;;;;;221.23;51.13;;;;;;;-146.25;100.00;52575.00;2088875;28;20119;-73
2023/11/13 02:13:53;;;;;;;206.18;48.40;;;;;;;-146.25;100.00;52605.44;2088805;28;20999;-72
2023/11/13 02:14:58;;;;;;;177.18;48.97;;;;;;;-146.25;100.00;52609.50;2080802;28;22905;-71
2023/11/13 02:16:00;;;;;;;206.48;51.13;;;;;;;-146.25;100.00;52627.75;2089502;28;20872;-73
2023/11/13 02:17:10;;;;;;;189.55;50.70;;;;;;;-146.25;100.00;52583.13;2080547;28;24253;-73
2023/11/13 02:18:14;;;;;;;202.32;49.15;;;;;;;-146.25;100.00;52579.06;2098929;28;20910;-72
2023/11/13 02:19:16;;;;;;;198.45;50.83;;;;;;;-146.25;100.00;52587.19;2105951;28;20095;-73
2023/11/13 02:20:18;;;;;;;192.48;49.72;;;;;;;-146.25;100.00;52605.44;2113846;28;20040;-72
2023/11/13 02:21:20;;;;;;;192.90;50.10;;;;;;;-146.25;100.00;52605.44;2105288;28;20036;-72
2023/11/13 02:22:22;;;;;;;201.73;49.95;;;;;;;-146.25;100.00;52607.47;2097333;28;20805;-72
2023/11/13 02:23:24;;;;;;;200.68;49.70;;;;;;;-146.25;100.00;52605.44;2088083;28;20873;-73
2023/11/13 02:24:27;;;;;;;190.23;50.30;;;;;;;-146.25;100.00;52595.28;2089531;28;20045;-72
2023/11/13 02:25:36;;;;;;;205.88;52.13;;;;;;;-146.25;100.00;52603.41;2097052;28;20052;-73
2023/11/13 02:26:37;;;;;;;232.45;49.33;;;;;;;-146.25;100.00;52603.41;2097458;28;32743;-72
2023/11/13 02:27:40;;;;;;;243.70;51.60;;;;;;;-146.25;100.00;52593.25;2101133;28;35093;-73
2023/11/13 02:28:43;;;;;;;175.10;47.85;;;;;;;-146.25;100.00;52593.25;2105521;28;20051;-72
2023/11/13 02:29:45;;;;;;;191.10;47.72;;;;;;;-146.25;100.00;52609.50;2105024;28;28686;-72
2023/11/13 02:30:47;;;;;;;195.63;49.00;;;;;;;-146.25;100.00;52550.69;2104643;28;29530;-73
2023/11/13 02:31:55;;;;;;;190.57;47.83;;;;;;;-146.25;100.00;52643.97;2105701;28;20223;-73
2023/11/13 02:32:57;;;;;;;177.68;45.28;;;;;;;-146.25;100.00;52609.50;2105743;28;29979;-73
2023/11/13 02:33:58;;;;;;;183.95;49.88;;;;;;;-146.25;100.00;52560.81;2105340;28;34831;-73
2023/11/13 02:35:03;;;;;;;185.15;47.45;;;;;;;-146.25;100.00;52591.25;2105897;28;20060;-73
2023/11/13 02:36:05;;;;;;;195.38;49.08;;;;;;;-146.25;100.00;52583.13;2105056;28;29900;-72
2023/11/13 02:37:07;;;;;;;187.77;49.10;;;;;;;-146.25;100.00;52597.31;2105027;28;29128;-72
2023/11/13 02:38:09;;;;;;;184.20;49.20;;;;;;;-146.25;100.00;52575.00;2105552;28;30505;-72
2023/11/13 02:39:11;;;;;;;198.93;49.92;;;;;;;-146.25;100.00;52599.34;2105944;28;20045;-71
2023/11/13 02:40:14;;;;;;;211.48;50.13;;;;;;;-146.25;100.00;52599.34;2105622;28;20055;-73
2023/11/13 02:41:16;;;;;;;190.98;49.85;;;;;;;-146.25;100.00;52579.06;2104827;28;32497;-73
2023/11/13 02:42:17;;;;;;;181.75;48.20;;;;;;;-146.25;100.00;52577.03;2096725;28;20044;-73
2023/11/13 02:43:19;;;;;;;191.30;49.58;;;;;;;-146.25;100.00;52635.84;2105396;28;20040;-73
2023/11/13 02:44:24;;;;;;;186.73;51.28;;;;;;;-146.25;100.00;52597.31;2106031;28;20126;-73
2023/11/13 02:45:26;;;;;;;223.75;49.92;;;;;;;-146.25;100.00;52615.56;2104853;28;26603;-72
2023/11/13 02:46:29;;;;;;;199.30;52.15;;;;;;;-146.25;100.00;52611.50;2097452;28;20037;-72
2023/11/13 02:47:31;;;;;;;212.60;51.83;;;;;;;-146.25;100.00;52623.69;2105371;28;27396;-73
2023/11/13 02:48:33;;;;;;;190.65;51.38;;;;;;;-146.25;100.00;52615.56;2105241;28;31917;-73
2023/11/13 02:49:36;;;;;;;202.68;52.10;;;;;;;-146.25;100.00;52631.78;2106054;28;20054;-73
2023/11/13 02:50:38;;;;;;;180.57;51.83;;;;;;;-146.25;100.00;52593.25;2104792;28;25053;-73
2023/11/13 02:51:41;;;;;;;216.80;48.80;;;;;;;-146.25;100.00;52601.38;2105070;28;28823;-73
2023/11/13 02:52:45;;;;;;;206.38;53.53;;;;;;;-146.25;100.00;52621.66;2105595;28;20052;-73
2023/11/13 02:53:46;;;;;;;198.73;52.00;;;;;;;-146.25;100.00;52601.38;2105574;28;25479;-72
2023/11/13 02:54:49;;;;;;;184.38;50.38;;;;;;;-146.25;100.00;52591.25;2104953;28;30533;-73
2023/11/13 02:55:52;;;;;;;183.82;49.95;;;;;;;-146.25;100.00;52583.13;2106051;28;20032;-73
2023/11/13 02:56:54;;;;;;;192.07;48.75;;;;;;;-146.25;100.00;52583.13;2103950;28;26131;-73
2023/11/13 02:57:56;;;;;;;190.32;47.15;;;;;;;-146.25;100.00;52607.47;2105163;28;25504;-73
2023/11/13 02:58:57;;;;;;;178.40;46.28;;;;;;;-146.25;100.00;52607.47;2096736;28;20898;-73
2023/11/13 03:00:01;;;;;;;174.45;47.83;;;;;;;-146.25;100.00;52627.75;2095540;28;32167;-72
2023/11/13 03:01:06;;;;;;;184.52;49.90;;;;;;;-146.25;100.00;52595.28;2103847;28;31444;-73
2023/11/13 03:02:08;;;;;;;204.50;49.47;;;;;;;-146.25;100.00;52595.28;2104914;28;30769;-72
2023/11/13 03:03:10;;;;;;;187.40;49.85;;;;;;;-146.25;100.00;52583.13;2104784;28;30330;-73
2023/11/13 03:04:12;;;;;;;205.73;48.63;;;;;;;-146.25;100.00;52627.75;2104878;28;20114;-73
2023/11/13 03:05:18;;;;;;;189.32;48.90;;;;;;;-146.25;100.00;52599.34;2104889;28;32821;-73
2023/11/13 03:06:23;;;;;;;199.07;52.42;;;;;;;-146.25;100.00;52635.84;2105440;28;33055;-72
2023/11/13 03:07:26;;;;;;;168.25;49.78;;;;;;;-146.25;100.00;52615.56;2105011;28;20821;-72
2023/11/13 03:08:28;;;;;;;195.15;49.17;;;;;;;-146.25;100.00;52623.69;2104782;28;33177;-71
2023/11/13 03:09:31;;;;;;;209.02;51.17;;;;;;;-146.25;100.00;52583.13;2106035;28;20049;-73
2023/11/13 03:10:33;;;;;;;206.65;47.75;;;;;;;-146.25;100.00;52575.00;2105045;28;27222;-72
2023/11/13 03:11:35;;;;;;;218.80;50.47;;;;;;;-146.25;100.00;52609.50;2106063;28;20036;-73
2023/11/13 03:12:40;;;;;;;248.73;52.15;;;;;;;-146.25;100.00;52629.75;2105887;28;20723;-73
2023/11/13 03:13:42;;;;;;;210.88;50.03;;;;;;;-146.25;100.00;52597.31;2105928;28;20507;-73
2023/11/13 03:14:44;;;;;;;200.73;50.22;;;;;;;-146.25;100.00;52591.25;2105362;28;24357;-72
2023/11/13 03:15:46;;;;;;;191.32;49.85;;;;;;;-146.25;100.00;52577.03;2105989;28;20044;-73
2023/11/13 03:16:50;;;;;;;193.00;48.83;;;;;;;-146.25;100.00;52566.91;2105611;28;26769;-73
2023/11/13 03:17:54;;;;;;;188.93;46.65;;;;;;;-146.25;100.00;52648.00;2104846;28;25963;-73
2023/11/13 03:18:56;;;;;;;182.80;48.58;;;;;;;-146.25;100.00;52581.09;2104749;28;31147;-73
2023/11/13 03:19:57;;;;;;;162.20;48.63;;;;;;;-146.25;100.00;52577.03;2105355;28;29540;-73
2023/11/13 03:21:00;;;;;;;207.20;48.25;;;;;;;-146.25;100.00;52550.69;2104991;28;23463;-72
2023/11/13 03:22:02;;;;;;;206.02;49.55;;;;;;;-146.25;100.00;52613.53;2104746;28;26753;-73
2023/11/13 03:23:04;;;;;;;173.23;48.65;;;;;;;-146.25;100.00;52566.91;2104941;28;20036;-72
2023/11/13 03:24:10;;;;;;;180.60;46.38;;;;;;;-146.25;100.00;52603.41;2104771;28;28056;-72
2023/11/13 03:25:14;;;;;;;183.15;48.25;;;;;;;-146.25;100.00;52595.28;2104952;28;26522;-73
2023/11/13 03:26:19;;;;;;;176.95;50.20;;;;;;;-146.25;100.00;52570.97;2105341;28;24156;-73
2023/11/13 03:27:22;;;;;;;184.15;49.70;;;;;;;-146.25;100.00;52585.16;2104842;28;20936;-73
2023/11/13 03:28:23;;;;;;;210.32;51.22;;;;;;;-146.25;100.00;52597.31;2104870;28;29944;-73
2023/11/13 03:29:25;;;;;;;191.52;51.55;;;;;;;-146.25;100.00;52625.72;2095795;28;33463;-72
2023/11/13 03:30:27;;;;;;;195.52;50.88;;;;;;;-146.25;100.00;52599.34;2096441;28;27924;-73
2023/11/13 03:31:31;;;;;;;176.40;50.28;;;;;;;-146.25;100.00;52566.91;2105029;28;30335;-73
2023/11/13 03:32:33;;;;;;;206.90;50.58;;;;;;;-146.25;100.00;52601.38;2105496;28;20829;-73
2023/11/13 03:33:35;;;;;;;185.05;50.60;;;;;;;-146.25;100.00;52583.13;2104723;28;25466;-73
2023/11/13 03:34:40;;;;;;;189.77;50.92;;;;;;;-146.25;100.00;52619.63;2095690;28;28652;-73
2023/11/13 03:35:42;;;;;;;201.07;52.08;;;;;;;-146.25;100.00;52581.09;2105424;28;20541;-72
2023/11/13 03:36:45;;;;;;;216.98;49.47;;;;;;;-146.25;100.00;52603.41;2104930;28;35612;-73
2023/11/13 03:37:46;;;;;;;176.95;48.63;;;;;;;-146.25;100.00;52625.72;2104379;28;33206;-73
2023/11/13 03:38:50;;;;;;;194.32;49.83;;;;;;;-146.25;100.00;52591.25;2105453;28;20554;-73
2023/11/13 03:39:52;;;;;;;181.18;50.72;;;;;;;-146.25;100.00;52587.19;2105711;28;20052;-74
2023/11/13 03:40:53;;;;;;;163.40;46.80;;;;;;;-146.25;100.00;52619.63;2104883;28;35710;-73
2023/11/13 03:41:55;;;;;;;181.38;49.35;;;;;;;-146.25;100.00;52564.88;2105638;28;20037;-73
2023/11/13 03:42:57;;;;;;;173.52;48.28;;;;;;;-146.25;100.00;52575.00;2105044;28;26402;-73
2023/11/13 03:44:00;;;;;;;178.82;49.13;;;;;;;-146.25;100.00;52607.47;2104871;28;30108;-73
2023/11/13 03:45:05;;;;;;;178.85;48.05;;;;;;;-146.25;100.00;52593.25;2105484;28;20168;-73
2023/11/13 03:46:07;;;;;;;188.55;49.20;;;;;;;-146.25;100.00;52607.47;2105245;28;31120;-73
2023/11/13 03:47:08;;;;;;;182.98;47.55;;;;;;;-146.25;100.00;52577.03;2104391;28;34271;-73
2023/11/13 03:48:11;;;;;;;179.35;50.63;;;;;;;-146.25;100.00;52589.22;2104766;28;20037;-73
2023/11/13 03:49:19;;;;;;;196.32;50.47;;;;;;;-146.25;100.00;52615.56;2105689;28;20047;-72
2023/11/13 03:50:21;;;;;;;172.68;48.85;;;;;;;-146.25;100.00;52599.34;2105164;28;20049;-73
2023/11/13 03:51:24;;;;;;;162.70;47.50;;;;;;;-146.25;100.00;52583.13;2105291;28;20817;-73
2023/11/13 03:52:26;;;;;;;173.68;51.03;;;;;;;-146.25;100.00;52633.81;2105028;28;30268;-73
2023/11/13 03:53:30;;;;;;;184.25;51.08;;;;;;;-146.25;100.00;52581.09;2105792;28;20652;-73
2023/11/13 03:54:32;;;;;;;190.27;49.17;;;;;;;-146.25;100.00;52570.97;2105497;28;27617;-73
2023/11/13 03:55:36;;;;;;;167.30;49.97;;;;;;;-146.25;100.00;52587.19;2104590;28;20067;-73
2023/11/13 03:56:38;;;;;;;182.00;50.40;;;;;;;-146.25;100.00;52621.66;2104481;28;28153;-73
2023/11/13 03:57:40;;;;;;;194.18;52.05;;;;;;;-146.25;100.00;52595.28;2104888;28;20170;-73
2023/11/13 03:58:42;;;;;;;204.23;53.70;;;;;;;-146.25;100.00;52570.97;2104339;28;32742;-73
2023/11/13 03:59:43;;;;;;;190.90;51.95;;;;;;;-146.25;100.00;52562.84;2105181;28;25118;-73
2023/11/13 04:00:45;;;;;;;176.32;50.17;;;;;;;-146.25;100.00;52633.81;2105148;28;29773;-73
2023/11/13 04:01:47;;;;;;;181.77;52.45;;;;;;;-146.25;100.00;52613.53;2105468;28;20064;-73
2023/11/13 04:02:49;;;;;;;186.20;52.22;;;;;;;-146.25;100.00;52581.09;2104979;28;20038;-73
2023/11/13 04:03:51;;;;;;;187.07;50.17;;;;;;;-146.25;100.00;52587.19;2105255;28;30244;-73
2023/11/13 04:04:53;;;;;;;189.50;52.72;;;;;;;-146.25;100.00;52566.91;2104499;28;35382;-73
2023/11/13 04:05:55;;;;;;;154.82;48.80;;;;;;;-146.25;100.00;52597.31;2105288;28;20055;-74
2023/11/13 04:06:56;;;;;;;145.27;47.90;;;;;;;-146.25;100.00;52587.19;2105149;28;26035;-73
2023/11/13 04:07:58;;;;;;;169.40;48.83;;;;;;;-146.25;100.00;52587.19;2105251;28;25242;-73
2023/11/13 04:09:02;;;;;;;174.30;49.47;;;;;;;-146.25;100.00;52609.50;2104746;28;20166;-73
2023/11/13 04:10:04;;;;;;;169.13;50.20;;;;;;;-146.25;100.00;52589.22;2103932;28;34358;-73
2023/11/13 04:11:06;;;;;;;164.13;48.88;;;;;;;-146.25;100.00;52593.25;2105500;28;20032;-73
2023/11/13 04:12:12;;;;;;;162.07;49.58;;;;;;;-146.25;100.00;52595.28;2105368;28;20036;-73
2023/11/13 04:13:14;;;;;;;177.77;49.17;;;;;;;-146.25;100.00;52593.25;2105353;28;20585;-73
2023/11/13 04:14:16;;;;;;;188.07;49.78;;;;;;;-146.25;100.00;52611.50;2105507;28;21001;-73
2023/11/13 04:15:18;;;;;;;193.25;52.60;;;;;;;-146.25;100.00;52575.00;2105207;28;20040;-73
2023/11/13 04:16:20;;;;;;;175.57;49.53;;;;;;;-146.25;100.00;52566.91;2105865;28;20053;-73
2023/11/13 04:17:23;;;;;;;176.80;46.85;;;;;;;-146.25;100.00;52605.44;2105349;28;20033;-73
2023/11/13 04:18:26;;;;;;;177.52;51.30;;;;;;;-146.25;100.00;52605.44;2105268;28;26250;-72
2023/11/13 04:19:29;;;;;;;185.45;48.42;;;;;;;-146.25;100.00;52639.91;2104788;28;27358;-72
2023/11/13 04:20:34;;;;;;;165.27;46.70;;;;;;;-146.25;100.00;52650.03;2104519;28;20052;-73
2023/11/13 04:21:36;;;;;;;167.75;47.17;;;;;;;-146.25;100.00;52619.63;2104353;28;29889;-73
2023/11/13 04:22:41;;;;;;;176.70;46.47;;;;;;;-146.25;100.00;52577.03;2104883;28;32157;-73
2023/11/13 04:23:45;;;;;;;155.18;46.65;;;;;;;-146.25;100.00;52615.56;2104455;28;38173;-73
2023/11/13 04:24:46;;;;;;;163.90;47.83;;;;;;;-146.25;100.00;52579.06;2104668;28;34506;-72
2023/11/13 04:25:51;;;;;;;162.20;49.00;;;;;;;-146.25;100.00;52570.97;2104326;28;35996;-73
2023/11/13 04:26:55;;;;;;;162.60;48.95;;;;;;;-146.25;100.00;52583.13;2104859;28;30852;-73
2023/11/13 04:27:57;;;;;;;173.02;48.88;;;;;;;-146.25;100.00;52603.41;2105092;28;20040;-73
2023/11/13 04:28:59;;;;;;;169.10;48.53;;;;;;;-146.25;100.00;52603.41;2104637;28;38106;-73
2023/11/13 04:30:00;;;;;;;165.57;48.30;;;;;;;-146.25;100.00;52595.28;2104140;28;34637;-73
2023/11/13 04:31:02;;;;;;;176.07;48.60;;;;;;;-146.25;100.00;52573.00;2104889;28;32603;-73
2023/11/13 04:32:04;;;;;;;204.80;49.85;;;;;;;-146.25;100.00;52591.25;2104523;28;34418;-73
2023/11/13 04:33:06;;;;;;;201.18;51.65;;;;;;;-146.25;100.00;52601.38;2105384;28;20145;-73
2023/11/13 04:34:10;;;;;;;177.57;51.03;;;;;;;-146.25;100.00;52589.22;2104990;28;33790;-73
2023/11/13 04:35:13;;;;;;;181.05;49.83;;;;;;;-146.25;100.00;52595.28;2104411;28;34583;-73
2023/11/13 04:36:15;;;;;;;178.48;50.28;;;;;;;-146.25;100.00;52589.22;2105272;28;20802;-73